Metar z pełnej godziny Komunikat METAR ze strony awiacja.imgw.pl Metar G00 EPPO METAR EPPO 200200Z VRB01KT CAVOK 16/11 Q1015 =